createdAt,value
2023-03-12T00:01:13.785Z,10.85
2023-03-12T00:04:20.319Z,11.93
2023-03-12T00:07:26.464Z,12.98
2023-03-12T00:10:31.191Z,14.37
2023-03-12T00:13:34.479Z,16.20
2023-03-12T00:16:37.647Z,15.68
2023-03-12T00:19:40.571Z,12.52
2023-03-12T00:22:44.380Z,13.63
2023-03-12T00:25:48.338Z,11.38
2023-03-12T00:28:52.616Z,7.50
2023-03-12T00:31:56.939Z,11.20
2023-03-12T00:35:01.110Z,12.95
2023-03-12T00:38:04.350Z,14.38
2023-03-12T00:41:07.738Z,9.02
2023-03-12T00:44:11.828Z,10.95
2023-03-12T00:47:14.965Z,14.60
2023-03-12T00:50:18.854Z,14.65
2023-03-12T00:53:22.650Z,15.43
2023-03-12T00:56:26.068Z,15.20
2023-03-12T00:59:29.381Z,15.65
2023-03-12T01:02:33.167Z,17.58
2023-03-12T01:05:38.386Z,14.95
2023-03-12T01:08:42.032Z,14.27
2023-03-12T01:11:45.088Z,14.13
2023-03-12T01:14:48.192Z,14.88
2023-03-12T01:17:51.811Z,16.30
2023-03-12T01:20:55.723Z,11.57
2023-03-12T01:23:59.349Z,11.68
2023-03-12T01:27:03.474Z,9.15
2023-03-12T01:30:07.634Z,12.85
2023-03-12T01:33:11.100Z,11.77
2023-03-12T01:36:22.091Z,13.27
2023-03-12T01:39:26.805Z,12.13
2023-03-12T01:42:30.375Z,13.93
2023-03-12T01:45:52.989Z,9.32
2023-03-12T01:49:04.443Z,13.82
2023-03-12T01:52:12.078Z,11.57
2023-03-12T01:55:26.157Z,12.65
2023-03-12T01:58:33.271Z,9.75
2023-03-12T02:01:36.568Z,12.60
2023-03-12T02:04:40.858Z,13.40
2023-03-12T02:07:45.236Z,12.60
2023-03-12T02:10:49.090Z,7.18
2023-03-12T02:13:53.210Z,10.65
2023-03-12T02:16:57.632Z,6.35
2023-03-12T02:20:13.076Z,10.43
2023-03-12T02:23:38.247Z,9.95
2023-03-12T02:26:41.862Z,9.35
2023-03-12T02:29:47.286Z,8.38
2023-03-12T02:32:52.698Z,10.05
2023-03-12T02:35:56.498Z,9.13
2023-03-12T02:39:01.654Z,8.82
2023-03-12T02:42:05.293Z,8.45
2023-03-12T02:45:08.741Z,9.10
2023-03-12T02:48:11.735Z,8.45
2023-03-12T02:51:14.927Z,8.30
2023-03-12T02:54:20.755Z,8.75
2023-03-12T02:57:24.881Z,7.57
2023-03-12T03:00:28.748Z,7.03
2023-03-12T03:03:31.871Z,5.93
2023-03-12T03:06:37.408Z,6.63
2023-03-12T03:09:41.737Z,6.13
2023-03-12T03:12:46.103Z,4.93
2023-03-12T03:15:50.258Z,4.07
2023-03-12T03:18:54.274Z,6.40
2023-03-12T03:21:58.108Z,5.28
2023-03-12T03:25:02.396Z,6.80
2023-03-12T03:28:06.233Z,4.75
2023-03-12T03:31:11.260Z,5.50
2023-03-12T03:34:16.736Z,5.38
2023-03-12T03:37:20.197Z,4.90
2023-03-12T03:40:23.874Z,4.22
2023-03-12T03:43:28.821Z,4.82
2023-03-12T03:46:32.845Z,4.50
2023-03-12T03:52:44.612Z,4.15
2023-03-12T03:55:48.840Z,5.75
2023-03-12T03:58:52.260Z,5.00
2023-03-12T04:01:57.638Z,4.05
2023-03-12T04:05:01.718Z,5.07
2023-03-12T04:08:07.253Z,4.85
2023-03-12T04:11:19.210Z,6.05
2023-03-12T04:14:23.341Z,4.18
2023-03-12T04:17:26.715Z,3.45
2023-03-12T04:20:32.719Z,3.53
2023-03-12T04:23:36.788Z,3.47
2023-03-12T04:26:40.772Z,4.93
2023-03-12T04:29:45.862Z,5.90
2023-03-12T04:32:50.682Z,5.25
2023-03-12T04:35:54.861Z,4.65
2023-03-12T04:38:59.277Z,3.60
2023-03-12T04:42:07.674Z,4.00
2023-03-12T04:45:13.327Z,2.53
2023-03-12T04:48:21.001Z,2.47
2023-03-12T04:51:27.466Z,3.85
2023-03-12T04:54:32.536Z,2.85
2023-03-12T04:57:37.349Z,2.47
2023-03-12T05:00:42.181Z,1.73
2023-03-12T05:03:46.502Z,2.55
2023-03-12T05:06:50.667Z,2.65
2023-03-12T05:09:54.751Z,2.60
2023-03-12T05:12:59.362Z,1.90
2023-03-12T05:16:04.382Z,2.40
2023-03-12T05:19:08.623Z,2.58
2023-03-12T05:22:13.110Z,2.65
2023-03-12T05:25:17.661Z,2.72
2023-03-12T05:28:22.581Z,1.88
2023-03-12T05:31:26.713Z,1.95
2023-03-12T05:34:31.733Z,2.10
2023-03-12T05:37:37.110Z,2.67
2023-03-12T05:40:41.048Z,1.98
2023-03-12T05:43:44.587Z,2.60
2023-03-12T05:46:48.692Z,3.33
2023-03-12T05:49:53.549Z,2.75
2023-03-12T05:52:58.538Z,2.72
2023-03-12T05:56:07.574Z,2.35
2023-03-12T05:59:13.802Z,2.10
2023-03-12T06:02:17.918Z,2.63
2023-03-12T06:05:21.538Z,2.00
2023-03-12T06:08:26.169Z,2.50
2023-03-12T06:11:30.779Z,3.38
2023-03-12T06:14:35.819Z,2.35
2023-03-12T06:17:40.092Z,2.30
2023-03-12T06:20:44.159Z,2.15
2023-03-12T06:23:49.368Z,2.35
2023-03-12T06:27:17.568Z,3.10
2023-03-12T06:30:21.596Z,2.22
2023-03-12T06:33:24.822Z,1.88
2023-03-12T06:36:27.969Z,2.20
2023-03-12T06:39:31.707Z,2.10
2023-03-12T06:42:35.301Z,2.08
2023-03-12T06:45:38.774Z,1.83
2023-03-12T06:48:42.662Z,1.80
2023-03-12T06:51:45.701Z,1.63
2023-03-12T06:54:49.304Z,1.77
2023-03-12T06:57:52.888Z,2.10
2023-03-12T07:00:56.408Z,1.42
2023-03-12T07:04:00.303Z,2.15
2023-03-12T07:07:03.722Z,1.38
2023-03-12T07:10:07.518Z,3.55
2023-03-12T07:13:11.146Z,2.78
2023-03-12T07:16:14.305Z,1.63
2023-03-12T07:19:20.307Z,1.75
2023-03-12T07:22:23.673Z,1.20
2023-03-12T07:25:28.029Z,1.40
2023-03-12T07:28:31.660Z,0.90
2023-03-12T07:31:35.377Z,1.20
2023-03-12T07:34:38.649Z,1.40
2023-03-12T07:37:42.550Z,1.30
2023-03-12T07:40:45.664Z,1.55
2023-03-12T07:43:49.415Z,1.60
2023-03-12T07:46:53.476Z,0.77
2023-03-12T07:49:57.085Z,1.80
2023-03-12T07:53:00.695Z,1.35
2023-03-12T07:56:04.412Z,1.40
2023-03-12T07:59:08.223Z,1.52
2023-03-12T08:02:13.367Z,1.40
2023-03-12T08:05:17.357Z,1.90
2023-03-12T08:08:20.836Z,1.85
2023-03-12T08:11:24.338Z,1.70
2023-03-12T08:14:32.671Z,1.63
2023-03-12T08:17:35.771Z,1.70
2023-03-12T08:20:38.773Z,1.30
2023-03-12T08:23:41.863Z,1.70
2023-03-12T08:26:46.858Z,1.70
2023-03-12T08:29:50.435Z,1.80
2023-03-12T08:32:54.272Z,1.85
2023-03-12T08:35:58.676Z,2.10
2023-03-12T08:39:03.686Z,2.22
2023-03-12T08:42:08.612Z,2.13
2023-03-12T08:45:14.240Z,2.10
2023-03-12T08:48:18.679Z,2.25
2023-03-12T08:51:22.999Z,2.55
2023-03-12T08:54:26.163Z,2.63
2023-03-12T08:57:30.781Z,2.50
2023-03-12T09:00:35.029Z,3.38
2023-03-12T09:03:39.642Z,3.83
2023-03-12T09:06:44.230Z,2.35
2023-03-12T09:09:47.763Z,2.60
2023-03-12T09:12:51.549Z,2.80
2023-03-12T09:16:01.074Z,2.92
2023-03-12T09:19:05.172Z,3.13
2023-03-12T09:22:09.235Z,2.50
2023-03-12T09:25:13.336Z,3.47
2023-03-12T09:28:17.458Z,2.50
2023-03-12T09:31:21.352Z,2.33
2023-03-12T09:34:25.419Z,2.75
2023-03-12T09:37:29.219Z,2.28
2023-03-12T09:40:37.625Z,2.97
2023-03-12T09:43:50.248Z,2.67
2023-03-12T09:47:01.979Z,2.33
2023-03-12T09:57:15.334Z,2.05
2023-03-12T10:00:22.432Z,2.28
2023-03-12T10:03:37.753Z,2.28
2023-03-12T10:07:14.596Z,1.67
2023-03-12T10:10:41.074Z,2.33
2023-03-12T10:13:59.226Z,2.38
2023-03-12T10:17:20.938Z,2.10
2023-03-12T10:20:52.295Z,2.00
2023-03-12T10:24:17.798Z,2.10
2023-03-12T10:27:25.017Z,1.52
2023-03-12T10:33:43.966Z,1.10
2023-03-12T10:36:47.994Z,1.95
2023-03-12T10:39:54.139Z,1.10
2023-03-12T10:42:58.036Z,1.38
2023-03-12T10:46:34.304Z,1.20
2023-03-12T10:49:38.514Z,1.38
2023-03-12T10:52:47.289Z,1.10
2023-03-12T10:56:01.052Z,0.90
2023-03-12T10:59:22.089Z,1.20
2023-03-12T11:02:37.308Z,1.42
2023-03-12T11:05:52.714Z,1.63
2023-03-12T11:09:19.633Z,1.38
2023-03-12T11:12:29.700Z,1.65
2023-03-12T11:15:42.974Z,1.55
2023-03-12T11:18:57.016Z,2.05
2023-03-12T11:22:09.074Z,2.17
2023-03-12T11:25:25.948Z,2.70
2023-03-12T11:28:40.353Z,2.20
2023-03-12T11:31:51.422Z,2.00
2023-03-12T11:34:55.970Z,2.03
2023-03-12T11:38:22.424Z,1.60
2023-03-12T11:41:53.505Z,2.00
2023-03-12T11:45:21.577Z,1.80
2023-03-12T11:48:41.759Z,1.90
2023-03-12T11:52:08.308Z,1.92
2023-03-12T11:55:31.196Z,1.50
2023-03-12T11:58:46.060Z,1.88
2023-03-12T12:02:34.779Z,1.48
2023-03-12T12:05:48.088Z,1.58
2023-03-12T12:09:26.424Z,1.30
2023-03-12T12:13:11.329Z,1.20
2023-03-12T12:16:35.675Z,1.42
2023-03-12T12:20:14.815Z,1.20
2023-03-12T12:23:35.462Z,1.67
2023-03-12T12:26:55.653Z,1.27
2023-03-12T12:30:27.065Z,1.58
2023-03-12T12:33:51.631Z,1.00
2023-03-12T12:37:13.977Z,1.23
2023-03-12T12:40:27.514Z,0.93
2023-03-12T12:43:39.004Z,1.50
2023-03-12T12:46:51.887Z,1.10
2023-03-12T12:50:03.718Z,1.10
2023-03-12T12:53:44.806Z,1.38
2023-03-12T12:56:56.821Z,1.10
2023-03-12T13:00:39.430Z,1.20
2023-03-12T13:03:48.490Z,0.98
2023-03-12T13:06:56.466Z,1.20
2023-03-12T13:10:08.677Z,1.00
2023-03-12T13:13:25.558Z,1.27
2023-03-12T13:16:46.904Z,1.33
2023-03-12T13:20:01.411Z,1.30
2023-03-12T13:23:21.495Z,1.17
2023-03-12T13:26:35.621Z,1.00
2023-03-12T13:29:46.618Z,1.20
2023-03-12T13:32:53.415Z,1.33
2023-03-12T13:36:14.718Z,1.10
2023-03-12T13:39:30.047Z,1.40
2023-03-12T13:42:43.301Z,1.35
2023-03-12T13:46:09.348Z,1.50
2023-03-12T13:49:15.967Z,2.45
2023-03-12T13:52:21.989Z,1.25
2023-03-12T13:55:29.947Z,1.25
2023-03-12T13:58:43.052Z,1.23
2023-03-12T14:01:54.827Z,1.45
2023-03-12T14:05:15.200Z,1.42
2023-03-12T14:08:35.906Z,1.30
2023-03-12T14:11:46.982Z,1.13
2023-03-12T14:15:24.801Z,1.58
2023-03-12T14:18:36.164Z,1.20
2023-03-12T14:21:47.366Z,1.85
2023-03-12T14:25:06.531Z,1.20
2023-03-12T14:28:25.868Z,1.60
2023-03-12T14:31:33.641Z,1.33
2023-03-12T14:34:51.551Z,1.17
2023-03-12T14:38:00.677Z,1.23
2023-03-12T14:41:15.681Z,1.80
2023-03-12T14:44:28.989Z,1.40
2023-03-12T14:47:45.285Z,1.38
2023-03-12T14:50:53.850Z,1.52
2023-03-12T14:54:06.422Z,2.85
2023-03-12T14:57:22.121Z,1.40
2023-03-12T15:00:30.526Z,0.93
2023-03-12T15:03:47.897Z,1.30
2023-03-12T15:07:05.850Z,1.27
2023-03-12T15:10:26.384Z,1.15
2023-03-12T15:13:33.205Z,1.15
2023-03-12T15:16:38.120Z,1.13
2023-03-12T15:19:41.495Z,1.27
2023-03-12T15:22:45.143Z,1.10
2023-03-12T15:25:48.824Z,1.00
2023-03-12T15:29:29.906Z,1.40
2023-03-12T15:32:36.506Z,1.25
2023-03-12T15:35:47.069Z,1.23
2023-03-12T15:38:57.513Z,1.27
2023-03-12T15:42:11.672Z,1.13
2023-03-12T15:45:25.640Z,1.10
2023-03-12T15:48:42.416Z,1.27
2023-03-12T15:52:05.785Z,1.60
2023-03-12T15:55:17.274Z,1.25
2023-03-12T15:58:36.157Z,1.23
2023-03-12T16:01:53.785Z,1.30
2023-03-12T16:04:59.422Z,1.42
2023-03-12T16:08:12.939Z,1.40
2023-03-12T16:11:25.483Z,1.10
2023-03-12T16:14:37.964Z,0.98
2023-03-12T16:17:43.233Z,1.30
2023-03-12T16:20:49.310Z,1.10
2023-03-12T16:23:54.716Z,1.30
2023-03-12T16:27:01.122Z,1.25
2023-03-12T16:30:07.943Z,1.17
2023-03-12T16:33:23.170Z,1.30
2023-03-12T16:36:29.100Z,1.10
2023-03-12T16:39:34.464Z,1.15
2023-03-12T16:42:40.024Z,1.23
2023-03-12T16:45:48.402Z,1.15
2023-03-12T16:48:54.659Z,1.23
2023-03-12T16:52:00.273Z,0.90
2023-03-12T16:55:06.066Z,1.00
2023-03-12T16:58:14.737Z,1.17
2023-03-12T17:01:23.062Z,1.00
2023-03-12T17:04:27.874Z,1.65
2023-03-12T17:07:32.802Z,1.08
2023-03-12T17:10:37.159Z,1.10
2023-03-12T17:13:42.692Z,1.00
2023-03-12T17:16:47.841Z,1.20
2023-03-12T17:19:56.142Z,1.00
2023-03-12T17:23:00.572Z,1.20
2023-03-12T17:26:06.231Z,1.00
2023-03-12T17:29:11.102Z,1.23
2023-03-12T17:32:15.436Z,1.00
2023-03-12T17:35:20.768Z,1.20
2023-03-12T17:38:25.308Z,0.98
2023-03-12T17:41:29.787Z,1.00
2023-03-12T17:44:36.195Z,0.95
2023-03-12T17:47:41.109Z,0.93
2023-03-12T17:50:46.891Z,1.10
2023-03-12T17:53:51.894Z,1.17
2023-03-12T17:56:56.643Z,0.98
2023-03-12T18:00:01.217Z,1.30
2023-03-12T18:03:16.042Z,1.00
2023-03-12T18:06:20.518Z,0.90
2023-03-12T18:09:24.806Z,1.02
2023-03-12T18:12:29.662Z,1.10
2023-03-12T18:15:35.074Z,0.93
2023-03-12T18:18:39.968Z,0.90
2023-03-12T18:21:44.800Z,1.02
2023-03-12T18:24:49.430Z,1.13
2023-03-12T18:27:56.663Z,1.00
2023-03-12T18:31:01.653Z,1.20
2023-03-12T18:34:06.889Z,1.70
2023-03-12T18:37:11.665Z,0.93
2023-03-12T18:40:16.828Z,1.10
2023-03-12T18:43:22.026Z,1.00
2023-03-12T18:46:26.994Z,1.00
2023-03-12T18:49:30.927Z,1.00
2023-03-12T18:52:36.200Z,0.82
2023-03-12T18:55:40.189Z,1.08
2023-03-12T18:58:44.616Z,1.17
2023-03-12T19:01:48.550Z,1.10
2023-03-12T19:04:55.946Z,0.80
2023-03-12T19:08:01.092Z,0.90
2023-03-12T19:11:14.230Z,1.00
2023-03-12T19:14:18.823Z,0.90
2023-03-12T19:17:25.203Z,1.73
2023-03-12T19:20:30.948Z,1.10
2023-03-12T19:23:40.478Z,0.95
2023-03-12T19:26:50.290Z,1.08
2023-03-12T19:30:00.633Z,1.00
2023-03-12T19:33:11.831Z,1.10
2023-03-12T19:36:21.562Z,0.73
2023-03-12T19:39:32.532Z,0.98
2023-03-12T19:42:43.517Z,1.10
2023-03-12T19:45:53.023Z,1.10
2023-03-12T19:49:02.848Z,0.82
2023-03-12T19:52:13.569Z,1.20
2023-03-12T19:55:24.869Z,1.30
2023-03-12T19:58:33.185Z,0.95
2023-03-12T20:01:44.279Z,1.13
2023-03-12T20:04:54.316Z,0.98
2023-03-12T20:08:01.706Z,1.33
2023-03-12T20:11:12.166Z,1.02
2023-03-12T20:14:21.531Z,1.20
2023-03-12T20:17:30.637Z,1.27
2023-03-12T20:20:40.493Z,2.97
2023-03-12T20:23:52.148Z,3.10
2023-03-12T20:27:01.032Z,2.13
2023-03-12T20:30:11.081Z,2.03
2023-03-12T20:33:20.302Z,1.90
2023-03-12T20:36:29.242Z,1.63
2023-03-12T20:39:37.940Z,1.65
2023-03-12T20:42:48.003Z,1.10
2023-03-12T20:45:58.119Z,1.00
2023-03-12T20:49:09.359Z,1.33
2023-03-12T20:52:18.791Z,1.83
2023-03-12T20:55:28.232Z,1.05
2023-03-12T20:58:38.819Z,1.67
2023-03-12T21:01:49.788Z,1.60
2023-03-12T21:05:00.253Z,1.63
2023-03-12T21:08:10.300Z,1.98
2023-03-12T21:11:21.181Z,1.55
2023-03-12T21:14:30.217Z,1.80
2023-03-12T21:17:41.606Z,1.55
2023-03-12T21:20:53.004Z,1.40
2023-03-12T21:24:02.032Z,1.20
2023-03-12T21:27:16.816Z,1.38
2023-03-12T21:30:29.435Z,1.08
2023-03-12T21:33:39.804Z,1.15
2023-03-12T21:36:48.596Z,1.23
2023-03-12T21:40:03.604Z,0.90
2023-03-12T21:43:13.824Z,1.20
2023-03-12T21:46:31.264Z,1.80
2023-03-12T21:49:44.082Z,1.88
2023-03-12T21:52:57.410Z,1.42
2023-03-12T21:56:10.851Z,1.17
2023-03-12T21:59:19.664Z,1.10
2023-03-12T22:02:29.219Z,1.55
2023-03-12T22:05:37.934Z,1.65
2023-03-12T22:08:46.979Z,1.92
2023-03-12T22:11:55.693Z,1.13
2023-03-12T22:15:05.245Z,2.13
2023-03-12T22:18:13.445Z,1.55
2023-03-12T22:21:25.870Z,1.35
2023-03-12T22:24:35.513Z,1.35
2023-03-12T22:27:45.146Z,1.80
2023-03-12T22:31:00.150Z,1.45
2023-03-12T22:34:09.159Z,1.58
2023-03-12T22:37:20.548Z,2.13
2023-03-12T22:40:29.668Z,1.60
2023-03-12T22:43:38.536Z,1.92
2023-03-12T22:46:48.586Z,2.13
2023-03-12T22:50:00.860Z,2.15
2023-03-12T22:53:11.017Z,1.30
2023-03-12T22:56:21.596Z,2.90
2023-03-12T22:59:31.558Z,1.70
2023-03-12T23:02:43.644Z,4.53
2023-03-12T23:05:55.950Z,2.58
2023-03-12T23:09:08.786Z,2.55
2023-03-12T23:12:14.995Z,2.35
2023-03-12T23:15:20.939Z,2.85
2023-03-12T23:18:24.753Z,2.15
2023-03-12T23:21:27.862Z,3.10
2023-03-12T23:24:32.857Z,2.45
2023-03-12T23:27:36.686Z,2.05
2023-03-12T23:30:40.836Z,2.30
2023-03-12T23:33:45.409Z,2.15
2023-03-12T23:36:51.550Z,2.85
2023-03-12T23:39:56.900Z,2.55
2023-03-12T23:43:01.289Z,2.55
2023-03-12T23:46:06.453Z,3.05
2023-03-12T23:49:11.602Z,2.80
2023-03-12T23:52:16.865Z,3.13
2023-03-12T23:55:24.448Z,2.67
2023-03-12T23:58:31.742Z,2.60
